createdAt,value
2016-12-20T00:00:06.944Z,1026.67
2016-12-20T00:01:06.960Z,1026.72
2016-12-20T00:02:06.976Z,1026.72
2016-12-20T00:03:06.993Z,1026.71
2016-12-20T00:04:07.008Z,1026.7
2016-12-20T00:05:07.025Z,1026.69
2016-12-20T00:06:07.041Z,1026.7
2016-12-20T00:07:07.056Z,1026.72
2016-12-20T00:08:07.073Z,1026.7
2016-12-20T00:09:07.089Z,1026.71
2016-12-20T00:10:07.106Z,1026.69
2016-12-20T00:11:07.121Z,1026.69
2016-12-20T00:13:07.154Z,1026.67
2016-12-20T00:14:07.170Z,1026.67
2016-12-20T00:15:07.186Z,1026.64
2016-12-20T00:16:07.202Z,1026.64
2016-12-20T00:17:07.219Z,1026.65
2016-12-20T00:18:07.234Z,1026.67
2016-12-20T00:19:07.250Z,1026.64
2016-12-20T00:20:07.267Z,1026.64
2016-12-20T00:21:07.283Z,1026.64
2016-12-20T00:22:07.298Z,1026.69
2016-12-20T00:23:07.315Z,1026.68
2016-12-20T00:24:07.332Z,1026.71
2016-12-20T00:25:07.348Z,1026.71
2016-12-20T00:26:07.364Z,1026.7
2016-12-20T00:28:07.397Z,1026.7
2016-12-20T00:29:07.412Z,1026.69
2016-12-20T00:30:07.429Z,1026.67
2016-12-20T00:31:07.445Z,1026.65
2016-12-20T00:32:07.462Z,1026.69
2016-12-20T00:33:07.477Z,1026.64
2016-12-20T00:34:07.493Z,1026.59
2016-12-20T00:35:07.509Z,1026.62
2016-12-20T00:36:07.525Z,1026.63
2016-12-20T00:37:07.541Z,1026.59
2016-12-20T00:38:07.558Z,1026.63
2016-12-20T00:39:07.574Z,1026.65
2016-12-20T00:40:07.589Z,1026.69
2016-12-20T00:41:07.606Z,1026.7
2016-12-20T00:42:07.622Z,1026.72
2016-12-20T00:43:07.639Z,1026.69
2016-12-20T00:44:07.654Z,1026.7
2016-12-20T00:45:07.671Z,1026.72
2016-12-20T00:46:07.687Z,1026.7
2016-12-20T00:47:07.702Z,1026.7
2016-12-20T00:48:07.718Z,1026.68
2016-12-20T00:49:07.737Z,1026.67
2016-12-20T00:50:07.751Z,1026.63
2016-12-20T00:51:07.767Z,1026.65
2016-12-20T00:52:07.786Z,1026.65
2016-12-20T00:53:07.799Z,1026.62
2016-12-20T00:54:07.816Z,1026.6
2016-12-20T00:55:07.832Z,1026.61
2016-12-20T00:56:07.848Z,1026.59
2016-12-20T00:57:07.864Z,1026.59
2016-12-20T00:58:07.880Z,1026.53
2016-12-20T01:00:07.913Z,1026.57
2016-12-20T01:01:07.929Z,1026.62
2016-12-20T01:02:07.944Z,1026.6
2016-12-20T01:03:07.961Z,1026.63
2016-12-20T01:04:07.978Z,1026.61
2016-12-20T01:05:07.994Z,1026.62
2016-12-20T01:06:08.009Z,1026.58
2016-12-20T01:07:08.026Z,1026.56
2016-12-20T01:08:08.042Z,1026.56
2016-12-20T01:09:08.058Z,1026.48
2016-12-20T01:10:08.074Z,1026.47
2016-12-20T01:11:08.090Z,1026.45
2016-12-20T01:12:08.107Z,1026.48
2016-12-20T01:13:08.122Z,1026.43
2016-12-20T01:14:08.138Z,1026.42
2016-12-20T01:16:08.171Z,1026.39
2016-12-20T01:17:08.187Z,1026.37
2016-12-20T01:18:08.203Z,1026.35
2016-12-20T01:19:08.220Z,1026.32
2016-12-20T01:20:08.236Z,1026.33
2016-12-20T01:21:08.251Z,1026.31
2016-12-20T01:22:08.268Z,1026.29
2016-12-20T01:23:08.284Z,1026.29
2016-12-20T01:24:08.299Z,1026.25
2016-12-20T01:25:08.316Z,1026.29
2016-12-20T01:26:08.334Z,1026.23
2016-12-20T01:27:08.349Z,1026.29
2016-12-20T01:28:08.364Z,1026.27
2016-12-20T01:29:08.380Z,1026.24
2016-12-20T01:30:08.396Z,1026.24
2016-12-20T01:32:08.429Z,1026.22
2016-12-20T01:33:08.445Z,1026.15
2016-12-20T01:34:08.461Z,1026.15
2016-12-20T01:35:08.476Z,1026.15
2016-12-20T01:36:08.493Z,1026.15
2016-12-20T01:37:08.509Z,1026.15
2016-12-20T01:38:08.528Z,1026.2
2016-12-20T01:39:08.541Z,1026.2
2016-12-20T01:40:08.558Z,1026.19
2016-12-20T01:41:08.577Z,1026.18
2016-12-20T01:42:08.589Z,1026.18
2016-12-20T01:43:08.605Z,1026.27
2016-12-20T01:44:08.622Z,1026.24
2016-12-20T01:45:08.638Z,1026.18
2016-12-20T01:46:08.654Z,1026.16
2016-12-20T01:48:08.687Z,1026.16
2016-12-20T01:49:08.703Z,1026.16
2016-12-20T01:50:08.718Z,1026.15
2016-12-20T01:51:08.735Z,1026.2
2016-12-20T01:52:08.751Z,1026.16
2016-12-20T01:53:08.766Z,1026.21
2016-12-20T01:54:08.783Z,1026.23
2016-12-20T01:55:08.799Z,1026.21
2016-12-20T01:56:08.815Z,1026.24
2016-12-20T01:57:08.830Z,1026.24
2016-12-20T01:58:08.847Z,1026.21
2016-12-20T01:59:08.863Z,1026.24
2016-12-20T02:00:08.879Z,1026.25
2016-12-20T02:01:08.896Z,1026.26
2016-12-20T02:03:08.928Z,1026.22
2016-12-20T02:04:08.944Z,1026.21
2016-12-20T02:05:08.960Z,1026.21
2016-12-20T02:06:08.977Z,1026.2
2016-12-20T02:07:08.992Z,1026.21
2016-12-20T02:08:09.008Z,1026.22
2016-12-20T02:09:09.024Z,1026.24
2016-12-20T02:10:09.040Z,1026.21
2016-12-20T02:11:09.055Z,1026.2
2016-12-20T02:12:09.072Z,1026.19
2016-12-20T02:13:09.088Z,1026.21
2016-12-20T02:14:09.104Z,1026.17
2016-12-20T02:15:09.120Z,1026.19
2016-12-20T02:16:09.136Z,1026.18
2016-12-20T02:17:09.152Z,1026.22
2016-12-20T02:18:09.168Z,1026.18
2016-12-20T02:19:09.183Z,1026.18
2016-12-20T02:20:09.200Z,1026.17
2016-12-20T02:21:09.216Z,1026.13
2016-12-20T02:22:09.231Z,1026.17
2016-12-20T02:23:09.247Z,1026.14
2016-12-20T02:24:09.264Z,1026.16
2016-12-20T02:25:09.280Z,1026.08
2016-12-20T02:26:09.295Z,1026.1
2016-12-20T02:27:09.311Z,1026.04
2016-12-20T02:28:09.328Z,1026.04
2016-12-20T02:29:09.344Z,1026.05
2016-12-20T02:30:09.359Z,1026
2016-12-20T02:31:09.375Z,1025.99
2016-12-20T02:32:09.392Z,1026
2016-12-20T02:33:09.407Z,1026.01
2016-12-20T02:35:09.440Z,1025.97
2016-12-20T02:36:09.456Z,1025.92
2016-12-20T02:37:09.471Z,1025.93
2016-12-20T02:38:09.487Z,1025.97
2016-12-20T02:39:09.504Z,1025.98
2016-12-20T02:40:09.520Z,1025.96
2016-12-20T02:41:09.535Z,1025.93
2016-12-20T02:42:09.552Z,1025.93
2016-12-20T02:43:09.568Z,1025.9
2016-12-20T02:44:09.583Z,1025.95
2016-12-20T02:45:09.599Z,1025.93
2016-12-20T02:46:09.615Z,1025.91
2016-12-20T02:47:09.632Z,1025.93
2016-12-20T02:48:09.647Z,1025.92
2016-12-20T02:49:09.665Z,1025.82
2016-12-20T02:51:09.696Z,1025.84
2016-12-20T02:52:09.711Z,1025.81
2016-12-20T02:53:09.728Z,1025.81
2016-12-20T02:54:09.744Z,1025.81
2016-12-20T02:55:09.759Z,1025.8
2016-12-20T02:56:09.776Z,1025.82
2016-12-20T02:57:09.792Z,1025.77
2016-12-20T02:58:09.808Z,1025.75
2016-12-20T02:59:09.823Z,1025.77
2016-12-20T03:00:09.840Z,1025.78
2016-12-20T03:01:09.856Z,1025.8
2016-12-20T03:02:09.872Z,1025.78
2016-12-20T03:03:09.887Z,1025.73
2016-12-20T03:04:09.904Z,1025.74
2016-12-20T03:05:09.920Z,1025.71
2016-12-20T03:07:09.951Z,1025.79
2016-12-20T03:08:09.967Z,1025.78
2016-12-20T03:09:09.987Z,1025.79
2016-12-20T03:10:09.999Z,1025.76
2016-12-20T03:11:10.015Z,1025.78
2016-12-20T03:12:10.031Z,1025.76
2016-12-20T03:13:10.047Z,1025.8
2016-12-20T03:14:10.063Z,1025.79
2016-12-20T03:15:10.079Z,1025.75
2016-12-20T03:16:10.095Z,1025.76
2016-12-20T03:17:10.110Z,1025.8
2016-12-20T03:18:10.126Z,1025.78
2016-12-20T03:19:10.143Z,1025.8
2016-12-20T03:20:10.160Z,1025.87
2016-12-20T03:21:10.174Z,1025.83
2016-12-20T03:23:10.206Z,1025.81
2016-12-20T03:24:10.223Z,1025.86
2016-12-20T03:25:10.238Z,1025.84
2016-12-20T03:26:10.254Z,1025.84
2016-12-20T03:27:10.270Z,1025.85
2016-12-20T03:28:10.285Z,1025.83
2016-12-20T03:29:10.301Z,1025.87
2016-12-20T03:30:10.317Z,1025.83
2016-12-20T03:31:10.334Z,1025.83
2016-12-20T03:32:10.349Z,1025.86
2016-12-20T03:33:10.365Z,1025.78
2016-12-20T03:34:10.381Z,1025.81
2016-12-20T03:35:10.397Z,1025.81
2016-12-20T03:36:10.413Z,1025.79
2016-12-20T03:38:10.446Z,1025.82
2016-12-20T03:39:10.461Z,1025.79
2016-12-20T03:40:10.476Z,1025.81
2016-12-20T03:41:10.493Z,1025.81
2016-12-20T03:42:10.511Z,1025.82
2016-12-20T03:43:10.524Z,1025.84
2016-12-20T03:44:10.540Z,1025.87
2016-12-20T03:45:10.555Z,1025.85
2016-12-20T03:46:10.571Z,1025.84
2016-12-20T03:47:10.586Z,1025.84
2016-12-20T03:48:10.603Z,1025.81
2016-12-20T03:49:10.618Z,1025.85
2016-12-20T03:50:10.634Z,1025.78
2016-12-20T03:51:10.650Z,1025.78
2016-12-20T03:52:10.665Z,1025.82
2016-12-20T03:53:10.681Z,1025.76
2016-12-20T03:54:10.696Z,1025.79
2016-12-20T03:55:10.711Z,1025.78
2016-12-20T03:56:10.727Z,1025.79
2016-12-20T03:57:10.742Z,1025.8
2016-12-20T03:58:10.758Z,1025.84
2016-12-20T03:59:10.773Z,1025.8
2016-12-20T04:00:10.789Z,1025.76
2016-12-20T04:01:10.804Z,1025.8
2016-12-20T04:02:10.819Z,1025.78
2016-12-20T04:03:10.835Z,1025.75
2016-12-20T04:04:10.850Z,1025.73
2016-12-20T04:05:10.865Z,1025.74
2016-12-20T04:06:10.881Z,1025.78
2016-12-20T04:07:10.896Z,1025.74
2016-12-20T04:08:10.911Z,1025.76
2016-12-20T04:10:10.942Z,1025.76
2016-12-20T04:11:10.958Z,1025.73
2016-12-20T04:12:10.972Z,1025.72
2016-12-20T04:13:10.987Z,1025.65
2016-12-20T04:14:11.003Z,1025.68
2016-12-20T04:15:11.019Z,1025.65
2016-12-20T04:16:11.033Z,1025.66
2016-12-20T04:17:11.048Z,1025.68
2016-12-20T04:18:11.064Z,1025.67
2016-12-20T04:19:11.078Z,1025.67
2016-12-20T04:20:11.094Z,1025.69
2016-12-20T04:21:11.109Z,1025.69
2016-12-20T04:22:11.124Z,1025.68
2016-12-20T04:23:11.139Z,1025.69
2016-12-20T04:24:11.156Z,1025.64
2016-12-20T04:26:11.184Z,1025.66
2016-12-20T04:27:11.199Z,1025.62
2016-12-20T04:28:11.214Z,1025.67
2016-12-20T04:29:11.230Z,1025.56
2016-12-20T04:30:11.244Z,1025.63
2016-12-20T04:31:11.259Z,1025.64
2016-12-20T04:32:11.275Z,1025.66
2016-12-20T04:33:11.290Z,1025.58
2016-12-20T04:34:11.304Z,1025.59
2016-12-20T04:35:11.319Z,1025.6
2016-12-20T04:36:11.335Z,1025.57
2016-12-20T04:37:11.350Z,1025.63
2016-12-20T04:38:11.364Z,1025.59
2016-12-20T04:39:11.379Z,1025.55
2016-12-20T04:40:11.395Z,1025.57
2016-12-20T04:42:11.424Z,1025.59
2016-12-20T04:43:11.439Z,1025.63
2016-12-20T04:44:11.454Z,1025.65
2016-12-20T04:45:11.468Z,1025.62
2016-12-20T04:46:11.484Z,1025.59
2016-12-20T04:47:11.499Z,1025.59
2016-12-20T04:48:11.514Z,1025.57
2016-12-20T04:49:11.528Z,1025.59
2016-12-20T04:50:11.544Z,1025.58
2016-12-20T04:51:11.559Z,1025.54
2016-12-20T04:52:11.573Z,1025.49
2016-12-20T04:53:11.588Z,1025.48
2016-12-20T04:54:11.603Z,1025.48
2016-12-20T04:55:11.618Z,1025.47
2016-12-20T04:56:11.632Z,1025.45
2016-12-20T04:58:11.662Z,1025.45
2016-12-20T04:59:11.678Z,1025.45
2016-12-20T05:00:11.692Z,1025.45
2016-12-20T05:01:11.707Z,1025.43
2016-12-20T05:02:11.722Z,1025.44
2016-12-20T05:03:11.736Z,1025.43
2016-12-20T05:04:11.751Z,1025.41
2016-12-20T05:05:11.766Z,1025.42
2016-12-20T05:06:11.781Z,1025.41
2016-12-20T05:07:11.795Z,1025.39
2016-12-20T05:08:11.810Z,1025.43
2016-12-20T05:09:11.825Z,1025.4
2016-12-20T05:10:11.840Z,1025.34
2016-12-20T05:11:11.856Z,1025.34
2016-12-20T05:13:11.885Z,1025.36
2016-12-20T05:14:11.899Z,1025.36
2016-12-20T05:15:11.914Z,1025.34
2016-12-20T05:16:11.929Z,1025.37
2016-12-20T05:17:11.944Z,1025.38
2016-12-20T05:18:11.958Z,1025.37
2016-12-20T05:19:11.973Z,1025.37
2016-12-20T05:20:11.988Z,1025.37
2016-12-20T05:21:12.002Z,1025.35
2016-12-20T05:22:12.016Z,1025.32
2016-12-20T05:23:12.032Z,1025.36
2016-12-20T05:24:12.047Z,1025.36
2016-12-20T05:25:12.061Z,1025.33
2016-12-20T05:26:12.076Z,1025.36
2016-12-20T05:27:12.091Z,1025.32
2016-12-20T05:28:12.108Z,1025.34
2016-12-20T05:29:12.120Z,1025.36
2016-12-20T05:30:12.135Z,1025.37
2016-12-20T05:31:12.150Z,1025.36
2016-12-20T05:32:12.163Z,1025.32
2016-12-20T05:33:12.178Z,1025.35
2016-12-20T05:34:12.194Z,1025.31
2016-12-20T05:35:12.208Z,1025.36
2016-12-20T05:36:12.222Z,1025.35
2016-12-20T05:37:12.239Z,1025.29
2016-12-20T05:38:12.252Z,1025.27
2016-12-20T05:39:12.266Z,1025.27
2016-12-20T05:40:12.280Z,1025.28
2016-12-20T05:41:12.294Z,1025.22
2016-12-20T05:42:12.310Z,1025.23
2016-12-20T05:43:12.323Z,1025.22
2016-12-20T05:45:12.353Z,1025.16
2016-12-20T05:46:12.368Z,1025.15
2016-12-20T05:47:12.381Z,1025.14
2016-12-20T05:48:12.396Z,1025.16
2016-12-20T05:49:12.411Z,1025.18
2016-12-20T05:50:12.426Z,1025.17
2016-12-20T05:51:12.439Z,1025.2
2016-12-20T05:52:12.454Z,1025.13
2016-12-20T05:53:12.469Z,1025.11
2016-12-20T05:54:12.483Z,1025.12
2016-12-20T05:55:12.498Z,1025.12
2016-12-20T05:56:12.512Z,1025.09
2016-12-20T05:57:12.527Z,1025.1
2016-12-20T05:58:12.541Z,1025.1
2016-12-20T05:59:12.555Z,1025.12
2016-12-20T06:01:12.585Z,1025.13
2016-12-20T06:02:12.599Z,1025.14
2016-12-20T06:03:12.614Z,1025.15
2016-12-20T06:04:12.628Z,1025.09
2016-12-20T06:05:12.642Z,1025.1
2016-12-20T06:06:12.656Z,1025.09
2016-12-20T06:07:12.671Z,1025.07
2016-12-20T06:08:12.686Z,1025.07
2016-12-20T06:09:12.699Z,1025.06
2016-12-20T06:10:12.714Z,1025.1
2016-12-20T06:11:12.728Z,1025.06
2016-12-20T06:12:12.744Z,1025.08
2016-12-20T06:13:12.757Z,1025.09
2016-12-20T06:14:12.773Z,1025.1
2016-12-20T06:15:12.786Z,1025.1
2016-12-20T06:17:12.815Z,1025.21
2016-12-20T06:18:12.829Z,1025.25
2016-12-20T06:19:12.844Z,1025.29
2016-12-20T06:20:12.857Z,1025.31
2016-12-20T06:21:12.873Z,1025.3
2016-12-20T06:22:12.887Z,1025.34
2016-12-20T06:23:12.902Z,1025.33
2016-12-20T06:24:12.916Z,1025.36
2016-12-20T06:25:12.930Z,1025.34
2016-12-20T06:26:12.945Z,1025.33
2016-12-20T06:27:12.958Z,1025.41
2016-12-20T06:28:12.973Z,1025.34
2016-12-20T06:29:12.988Z,1025.33
2016-12-20T06:30:13.003Z,1025.34
2016-12-20T06:31:13.017Z,1025.33
2016-12-20T06:33:13.046Z,1025.38
2016-12-20T06:34:13.061Z,1025.4
2016-12-20T06:35:13.074Z,1025.38
2016-12-20T06:36:13.089Z,1025.42
2016-12-20T06:37:13.104Z,1025.41
2016-12-20T06:38:13.117Z,1025.38
2016-12-20T06:39:13.132Z,1025.38
2016-12-20T06:40:13.147Z,1025.38
2016-12-20T06:41:13.161Z,1025.4
2016-12-20T06:42:13.175Z,1025.41
2016-12-20T06:43:13.190Z,1025.42
2016-12-20T06:44:13.204Z,1025.42
2016-12-20T06:45:13.219Z,1025.41
2016-12-20T06:46:13.234Z,1025.43
2016-12-20T06:48:13.263Z,1025.46
2016-12-20T06:49:13.277Z,1025.45
2016-12-20T06:50:13.291Z,1025.46
2016-12-20T06:51:13.306Z,1025.48
2016-12-20T06:52:13.320Z,1025.49
2016-12-20T06:53:13.334Z,1025.49
2016-12-20T06:54:13.349Z,1025.47
2016-12-20T06:55:13.364Z,1025.57
2016-12-20T06:56:13.377Z,1025.55
2016-12-20T06:57:13.392Z,1025.55
2016-12-20T06:58:13.407Z,1025.54
2016-12-20T06:59:13.422Z,1025.55
2016-12-20T07:00:13.436Z,1025.54
2016-12-20T07:01:13.450Z,1025.55
2016-12-20T07:02:13.465Z,1025.54
2016-12-20T07:03:13.480Z,1025.55
2016-12-20T07:04:13.493Z,1025.51
2016-12-20T07:05:13.508Z,1025.54
2016-12-20T07:06:13.523Z,1025.56
2016-12-20T07:07:13.536Z,1025.59
2016-12-20T07:08:13.551Z,1025.59
2016-12-20T07:09:13.566Z,1025.58
2016-12-20T07:10:13.581Z,1025.61
2016-12-20T07:11:13.594Z,1025.62
2016-12-20T07:12:13.609Z,1025.63
2016-12-20T07:13:13.624Z,1025.6
2016-12-20T07:14:13.638Z,1025.61
2016-12-20T07:15:13.652Z,1025.64
2016-12-20T07:16:13.667Z,1025.62
2016-12-20T07:17:13.681Z,1025.6
2016-12-20T07:18:13.695Z,1025.61
2016-12-20T07:20:13.724Z,1025.67
2016-12-20T07:21:13.739Z,1025.65
2016-12-20T07:22:13.752Z,1025.65
2016-12-20T07:23:13.767Z,1025.69
2016-12-20T07:24:13.781Z,1025.69
2016-12-20T07:25:13.795Z,1025.72
2016-12-20T07:26:13.809Z,1025.68
2016-12-20T07:27:13.824Z,1025.72
2016-12-20T07:28:13.839Z,1025.74
2016-12-20T07:29:13.852Z,1025.72
2016-12-20T07:30:13.866Z,1025.66
2016-12-20T07:31:13.880Z,1025.73
2016-12-20T07:32:13.895Z,1025.72
2016-12-20T07:33:13.909Z,1025.73
2016-12-20T07:34:13.923Z,1025.77
2016-12-20T07:36:13.952Z,1025.75
2016-12-20T07:37:13.967Z,1025.73
2016-12-20T07:38:13.980Z,1025.74
2016-12-20T07:39:13.994Z,1025.72
2016-12-20T07:40:14.008Z,1025.71
2016-12-20T07:41:14.023Z,1025.72
2016-12-20T07:42:14.037Z,1025.68
2016-12-20T07:43:14.051Z,1025.7
2016-12-20T07:44:14.065Z,1025.64
2016-12-20T07:45:14.080Z,1025.63
2016-12-20T07:46:14.094Z,1025.67
2016-12-20T07:47:14.109Z,1025.67
2016-12-20T07:48:14.122Z,1025.74
2016-12-20T07:49:14.137Z,1025.76
2016-12-20T07:50:14.151Z,1025.78
2016-12-20T07:52:14.179Z,1025.78
2016-12-20T07:53:14.194Z,1025.8
2016-12-20T07:54:14.208Z,1025.76
2016-12-20T07:55:14.221Z,1025.79
2016-12-20T07:56:14.236Z,1025.81
2016-12-20T07:57:14.250Z,1025.8
2016-12-20T07:58:14.265Z,1025.77
2016-12-20T07:59:14.279Z,1025.78
2016-12-20T08:00:14.293Z,1025.8
2016-12-20T08:01:14.307Z,1025.76
2016-12-20T08:02:14.321Z,1025.73
2016-12-20T08:03:14.338Z,1025.74
2016-12-20T08:04:14.350Z,1025.72
2016-12-20T08:05:14.364Z,1025.68
2016-12-20T08:06:14.378Z,1025.7
2016-12-20T08:08:14.408Z,1025.72
2016-12-20T08:09:14.422Z,1025.7
2016-12-20T08:10:14.435Z,1025.69
2016-12-20T08:11:14.751Z,1025.75
2016-12-20T08:12:14.464Z,1025.76
2016-12-20T08:13:14.478Z,1025.73
2016-12-20T08:14:14.493Z,1025.7
2016-12-20T08:15:14.507Z,1025.71
2016-12-20T08:16:14.521Z,1025.71
2016-12-20T08:17:14.535Z,1025.71
2016-12-20T08:18:14.549Z,1025.76
2016-12-20T08:19:14.564Z,1025.76
2016-12-20T08:20:14.579Z,1025.79
2016-12-20T08:21:14.593Z,1025.79
2016-12-20T08:23:14.622Z,1025.83
2016-12-20T08:24:14.636Z,1025.83
2016-12-20T08:25:14.651Z,1025.78
2016-12-20T08:26:14.665Z,1025.78
2016-12-20T08:27:14.680Z,1025.82
2016-12-20T08:28:14.694Z,1025.79
2016-12-20T08:29:14.708Z,1025.8
2016-12-20T08:30:14.723Z,1025.79
2016-12-20T08:31:14.736Z,1025.8
2016-12-20T08:32:14.751Z,1025.82
2016-12-20T08:33:14.768Z,1025.79
2016-12-20T08:34:14.780Z,1025.78
2016-12-20T08:35:14.794Z,1025.77
2016-12-20T08:36:14.809Z,1025.81
2016-12-20T08:37:14.824Z,1025.81
2016-12-20T08:38:14.838Z,1025.84
2016-12-20T08:39:14.852Z,1025.86
2016-12-20T08:40:14.868Z,1025.8
2016-12-20T08:41:14.881Z,1025.87
2016-12-20T08:42:14.895Z,1025.83
2016-12-20T08:43:14.910Z,1025.86
2016-12-20T08:44:14.924Z,1025.83
2016-12-20T08:45:14.939Z,1025.79
2016-12-20T08:46:14.953Z,1025.76
2016-12-20T08:47:14.968Z,1025.76
2016-12-20T08:48:14.983Z,1025.72
2016-12-20T08:49:14.997Z,1025.73
2016-12-20T08:50:15.011Z,1025.73
2016-12-20T08:51:15.026Z,1025.7
2016-12-20T08:52:15.041Z,1025.68
2016-12-20T08:53:15.055Z,1025.61
2016-12-20T08:55:15.084Z,1025.59
2016-12-20T08:56:15.100Z,1025.58
2016-12-20T08:57:15.113Z,1025.59
2016-12-20T08:58:15.128Z,1025.59
2016-12-20T08:59:15.143Z,1025.6
2016-12-20T09:00:15.158Z,1025.61
2016-12-20T09:01:15.172Z,1025.65
2016-12-20T09:02:15.187Z,1025.64
2016-12-20T09:03:15.202Z,1025.6
2016-12-20T09:04:15.216Z,1025.61
2016-12-20T09:05:15.231Z,1025.62
2016-12-20T09:06:15.246Z,1025.65
2016-12-20T09:07:15.260Z,1025.66
2016-12-20T09:08:15.275Z,1025.61
2016-12-20T09:09:15.289Z,1025.65
2016-12-20T09:11:15.319Z,1025.65
2016-12-20T09:12:15.333Z,1025.65
2016-12-20T09:13:15.348Z,1025.65
2016-12-20T09:14:15.363Z,1025.66
2016-12-20T09:15:15.377Z,1025.65
2016-12-20T09:16:15.392Z,1025.6
2016-12-20T09:17:15.407Z,1025.62
2016-12-20T09:18:15.422Z,1025.61
2016-12-20T09:19:15.436Z,1025.57
2016-12-20T09:20:15.450Z,1025.55
2016-12-20T09:21:15.465Z,1025.55
2016-12-20T09:22:15.480Z,1025.54
2016-12-20T09:23:15.494Z,1025.49
2016-12-20T09:24:15.509Z,1025.47
2016-12-20T09:25:15.524Z,1025.48
2016-12-20T09:27:15.553Z,1025.42
2016-12-20T09:28:15.568Z,1025.41
2016-12-20T09:29:15.583Z,1025.42
2016-12-20T09:30:15.597Z,1025.35
2016-12-20T09:31:15.613Z,1025.33
2016-12-20T09:32:15.630Z,1025.34
2016-12-20T09:33:15.642Z,1025.35
2016-12-20T09:34:15.657Z,1025.35
2016-12-20T09:35:15.672Z,1025.28
2016-12-20T09:36:15.687Z,1025.3
2016-12-20T09:37:15.701Z,1025.25
2016-12-20T09:38:15.716Z,1025.27
2016-12-20T09:39:15.731Z,1025.24
2016-12-20T09:40:15.748Z,1025.25
2016-12-20T09:41:15.760Z,1025.24
2016-12-20T09:43:15.791Z,1025.29
2016-12-20T09:44:15.806Z,1025.26
2016-12-20T09:45:15.820Z,1025.33
2016-12-20T09:46:15.835Z,1025.37
2016-12-20T09:47:15.850Z,1025.34
2016-12-20T09:48:15.863Z,1025.32
2016-12-20T09:49:15.879Z,1025.27
2016-12-20T09:50:15.894Z,1025.3
2016-12-20T09:51:15.909Z,1025.32
2016-12-20T09:52:15.923Z,1025.3
2016-12-20T09:53:15.941Z,1025.35
2016-12-20T09:54:15.953Z,1025.33
2016-12-20T09:55:15.968Z,1025.28
2016-12-20T09:56:15.983Z,1025.33
2016-12-20T09:58:16.013Z,1025.29
2016-12-20T09:59:16.028Z,1025.33
2016-12-20T10:00:16.043Z,1025.32
2016-12-20T10:01:16.057Z,1025.31
2016-12-20T10:02:16.073Z,1025.34
2016-12-20T10:03:16.090Z,1025.28
2016-12-20T10:04:16.102Z,1025.35
2016-12-20T10:05:16.117Z,1025.31
2016-12-20T10:06:16.132Z,1025.32
2016-12-20T10:07:16.146Z,1025.35
2016-12-20T10:08:16.162Z,1025.34
2016-12-20T10:09:16.177Z,1025.35
2016-12-20T10:10:16.191Z,1025.34
2016-12-20T10:11:16.206Z,1025.4
2016-12-20T10:12:16.221Z,1025.42
2016-12-20T10:13:16.237Z,1025.39
2016-12-20T10:14:16.301Z,1025.4
2016-12-20T10:15:16.267Z,1025.38
2016-12-20T10:16:16.283Z,1025.35
2016-12-20T10:17:16.296Z,1025.35
2016-12-20T10:18:16.311Z,1025.32
2016-12-20T10:19:16.326Z,1025.34
2016-12-20T10:20:16.341Z,1025.3
2016-12-20T10:21:16.355Z,1025.25
2016-12-20T10:22:16.371Z,1025.26
2016-12-20T10:23:16.386Z,1025.24
2016-12-20T10:24:16.401Z,1025.21
2016-12-20T10:25:16.415Z,1025.22
2016-12-20T10:26:16.431Z,1025.15
2016-12-20T10:27:16.446Z,1025.15
2016-12-20T10:28:16.460Z,1025.16
2016-12-20T10:30:16.491Z,1025.1
2016-12-20T10:31:16.506Z,1025.09
2016-12-20T10:32:16.520Z,1025.09
2016-12-20T10:33:16.536Z,1025.08
2016-12-20T10:34:16.551Z,1025.05
2016-12-20T10:35:16.566Z,1025.03
2016-12-20T10:36:16.581Z,1024.98
2016-12-20T10:37:16.596Z,1024.93
2016-12-20T10:38:16.611Z,1024.92
2016-12-20T10:39:16.626Z,1024.93
2016-12-20T10:40:16.641Z,1024.93
2016-12-20T10:41:16.656Z,1024.93
2016-12-20T10:42:16.672Z,1024.94
2016-12-20T10:43:16.688Z,1024.94
2016-12-20T10:44:16.701Z,1024.98
2016-12-20T10:46:16.732Z,1025
2016-12-20T10:47:16.746Z,1025.03
2016-12-20T10:48:16.762Z,1025.03
2016-12-20T10:49:16.777Z,1025.02
2016-12-20T10:50:16.792Z,1025.05
2016-12-20T10:51:16.807Z,1025.04
2016-12-20T10:52:16.823Z,1025.04
2016-12-20T10:53:16.838Z,1025.05
2016-12-20T10:54:16.853Z,1024.99
2016-12-20T10:55:16.868Z,1024.96
2016-12-20T10:56:16.883Z,1024.97
2016-12-20T10:57:16.899Z,1025.01
2016-12-20T10:58:16.914Z,1024.95
2016-12-20T10:59:16.928Z,1024.93
2016-12-20T11:00:16.946Z,1024.96
2016-12-20T11:02:16.974Z,1024.94
2016-12-20T11:03:16.989Z,1024.93
2016-12-20T11:04:17.005Z,1024.93
2016-12-20T11:05:17.019Z,1024.94
2016-12-20T11:06:17.035Z,1024.88
2016-12-20T11:07:17.050Z,1024.9
2016-12-20T11:08:17.066Z,1024.86
2016-12-20T11:09:17.081Z,1024.89
2016-12-20T11:10:17.097Z,1024.85
2016-12-20T11:11:17.111Z,1024.88
2016-12-20T11:12:17.126Z,1024.83
2016-12-20T11:13:17.142Z,1024.79
2016-12-20T11:14:17.157Z,1024.79
2016-12-20T11:15:17.173Z,1024.78
2016-12-20T11:16:17.187Z,1024.79
2016-12-20T11:18:17.218Z,1024.76
2016-12-20T11:19:17.234Z,1024.8
2016-12-20T11:20:17.248Z,1024.78
2016-12-20T11:21:17.264Z,1024.78
2016-12-20T11:22:17.279Z,1024.78
2016-12-20T11:23:17.294Z,1024.8
2016-12-20T11:24:17.310Z,1024.78
2016-12-20T11:25:17.325Z,1024.79
2016-12-20T11:26:17.341Z,1024.75
2016-12-20T11:27:17.355Z,1024.76
2016-12-20T11:28:17.371Z,1024.69
2016-12-20T11:29:17.386Z,1024.74
2016-12-20T11:30:17.403Z,1024.75
2016-12-20T11:31:17.417Z,1024.75
2016-12-20T11:33:17.448Z,1024.7
2016-12-20T11:34:17.462Z,1024.69
2016-12-20T11:35:17.478Z,1024.67
2016-12-20T11:36:17.493Z,1024.62
2016-12-20T11:37:17.509Z,1024.65
2016-12-20T11:38:17.523Z,1024.61
2016-12-20T11:39:17.538Z,1024.56
2016-12-20T11:40:17.554Z,1024.59
2016-12-20T11:41:17.568Z,1024.61
2016-12-20T11:42:17.584Z,1024.63
2016-12-20T11:43:17.600Z,1024.63
2016-12-20T11:44:17.614Z,1024.58
2016-12-20T11:45:17.629Z,1024.58
2016-12-20T11:46:17.644Z,1024.58
2016-12-20T11:47:17.659Z,1024.48
2016-12-20T11:48:17.675Z,1024.5
2016-12-20T11:49:17.690Z,1024.46
2016-12-20T11:50:17.704Z,1024.49
2016-12-20T11:51:17.719Z,1024.44
2016-12-20T11:52:17.734Z,1024.46
2016-12-20T11:53:17.749Z,1024.43
2016-12-20T11:54:17.765Z,1024.45
2016-12-20T11:55:17.780Z,1024.39
2016-12-20T11:56:17.795Z,1024.35
2016-12-20T11:57:17.810Z,1024.37
2016-12-20T11:58:17.825Z,1024.39
2016-12-20T11:59:17.841Z,1024.41
2016-12-20T12:00:17.855Z,1024.43
2016-12-20T12:01:17.870Z,1024.45
2016-12-20T12:02:17.886Z,1024.42
2016-12-20T12:03:17.900Z,1024.35
2016-12-20T12:05:17.930Z,1024.35
2016-12-20T12:06:17.945Z,1024.33
2016-12-20T12:07:17.960Z,1024.3
2016-12-20T12:08:17.975Z,1024.31
2016-12-20T12:09:17.991Z,1024.28
2016-12-20T12:10:18.006Z,1024.24
2016-12-20T12:11:18.020Z,1024.2
2016-12-20T12:12:18.035Z,1024.14
2016-12-20T12:13:18.051Z,1024.15
2016-12-20T12:14:18.065Z,1024.12
2016-12-20T12:15:18.080Z,1024.17
2016-12-20T12:16:18.095Z,1024.11
2016-12-20T12:17:18.111Z,1024.13
2016-12-20T12:18:18.125Z,1024.06
2016-12-20T12:19:18.140Z,1024.06
2016-12-20T12:21:18.171Z,1024
2016-12-20T12:22:18.186Z,1024.01
2016-12-20T12:23:18.201Z,1023.97
2016-12-20T12:24:18.216Z,1023.93
2016-12-20T12:25:18.231Z,1023.96
2016-12-20T12:26:18.246Z,1024.01
2016-12-20T12:27:18.287Z,1023.98
2016-12-20T12:28:18.278Z,1023.93
2016-12-20T12:29:18.291Z,1023.93
2016-12-20T12:30:18.306Z,1023.95
2016-12-20T12:31:18.323Z,1023.94
2016-12-20T12:32:18.337Z,1023.91
2016-12-20T12:33:18.352Z,1023.87
2016-12-20T12:34:18.367Z,1023.88
2016-12-20T12:35:18.383Z,1023.94
2016-12-20T12:37:18.412Z,1023.85
2016-12-20T12:38:18.429Z,1023.81
2016-12-20T12:39:18.443Z,1023.78
2016-12-20T12:40:18.457Z,1023.79
2016-12-20T12:41:18.473Z,1023.78
2016-12-20T12:42:18.512Z,1023.76
2016-12-20T12:43:18.503Z,1023.77
2016-12-20T12:44:18.517Z,1023.77
2016-12-20T12:45:18.533Z,1023.75
2016-12-20T12:46:18.548Z,1023.85
2016-12-20T12:47:18.562Z,1023.81
2016-12-20T12:48:18.577Z,1023.75